Time;durP1;ratioP1;P1;durP2;ratioP2;P2;SDS_P1;SDS_P2;PMS_P1;PMS_P2;Temp;Humidity;BMP_temperature;BMP_pressure;BME280_temperature;BME280_humidity;BME280_pressure;Samples;Min_cycle;Max_cycle;Signal;HPM_P1;HPM_P2
2023/04/29 00:01:32;;;;;;;39.67;24.63;;;;;;;;;;4935920;28;20059;-68
2023/04/29 00:03:57;;;;;;;41.08;24.10;;;10.20;99.90;;;;;;4942712;28;20043;-68
2023/04/29 00:06:23;;;;;;;37.28;23.73;;;;;;;;;;4940391;28;20044;-68
2023/04/29 00:08:51;;;;;;;40.33;24.73;;;;;;;;;;4939175;28;20054;-68
2023/04/29 00:11:17;;;;;;;44.63;25.35;;;;;;;;;;4933704;29;20047;-68
2023/04/29 00:13:43;;;;;;;42.45;25.23;;;;;;;;;;4937013;29;20055;-68
2023/04/29 00:16:09;;;;;;;40.72;23.17;;;;;;;;;;4933829;28;20048;-68
2023/04/29 00:18:36;;;;;;;44.55;24.88;;;;;;;;;;4934798;29;20052;-68
2023/04/29 00:21:04;;;;;;;43.92;22.80;;;;;;;;;;4938298;28;20614;-68
2023/04/29 00:23:30;;;;;;;39.60;25.50;;;;;;;;;;4933518;28;20417;-68
2023/04/29 00:25:56;;;;;;;43.88;24.20;;;9.90;99.90;;;;;;4935079;28;20043;-68
2023/04/29 00:28:22;;;;;;;44.90;23.77;;;;;;;;;;4947315;28;20465;-68
2023/04/29 00:30:48;;;;;;;38.20;23.10;;;;;;;;;;4944351;28;20489;-68
2023/04/29 00:33:14;;;;;;;40.47;22.63;;;;;;;;;;4943314;28;20043;-68
2023/04/29 00:35:40;;;;;;;42.38;24.33;;;;;;;;;;4942730;28;20047;-68
2023/04/29 00:38:06;;;;;;;44.97;24.98;;;;;;;;;;4939926;28;20047;-68
2023/04/29 00:40:34;;;;;;;44.58;23.33;;;10.10;99.90;;;;;;4940348;28;20383;-68
2023/04/29 00:43:00;;;;;;;44.50;24.27;;;;;;;;;;4946995;29;20147;-68
2023/04/29 00:45:26;;;;;;;40.85;23.73;;;;;;;;;;4935901;28;20079;-68
2023/04/29 00:47:52;;;;;;;53.47;27.65;;;10.10;99.90;;;;;;4934368;28;20115;-68
2023/04/29 00:50:18;;;;;;;43.45;23.63;;;;;;;;;;4931753;28;20629;-68
2023/04/29 00:52:44;;;;;;;41.90;24.42;;;10.00;99.90;;;;;;4943353;28;20043;-68
2023/04/29 00:55:13;;;;;;;44.50;24.23;;;;;;;;;;4927183;29;20119;-68
2023/04/29 00:57:40;;;;;;;40.33;24.77;;;;;;;;;;4932500;28;20086;-68
2023/04/29 01:00:08;;;;;;;42.83;25.08;;;;;;;;;;4932497;28;20510;-68
2023/04/29 01:02:34;;;;;;;44.53;24.17;;;;;;;;;;4937520;28;20087;-68
2023/04/29 01:05:00;;;;;;;45.55;23.92;;;;;;;;;;4942030;28;20054;-68
2023/04/29 01:07:31;;;;;;;45.58;23.60;;;;;;;;;;4938437;28;20056;-68
2023/04/29 01:10:10;;;;;;;45.63;24.38;;;;;;;;;;4933537;28;20183;-68
2023/04/29 01:12:35;;;;;;;42.25;23.52;;;;;;;;;;4933690;28;20056;-68
2023/04/29 01:15:21;;;;;;;48.35;24.27;;;;;;;;;;4936971;29;20058;-68
2023/04/29 01:17:59;;;;;;;46.70;23.00;;;;;;;;;;4931944;28;20502;-68
2023/04/29 01:20:26;;;;;;;41.35;23.65;;;;;;;;;;4943732;29;20073;-68
2023/04/29 01:22:51;;;;;;;41.58;23.13;;;9.70;99.90;;;;;;4941630;28;20043;-68
2023/04/29 01:25:18;;;;;;;41.25;22.70;;;;;;;;;;4921458;28;20035;-68
2023/04/29 01:27:44;;;;;;;38.17;21.13;;;;;;;;;;4942312;28;20133;-68
2023/04/29 01:30:31;;;;;;;39.17;22.02;;;9.80;99.90;;;;;;4944436;29;20533;-68
2023/04/29 01:33:06;;;;;;;35.78;21.75;;;;;;;;;;4935378;28;20118;-68
2023/04/29 01:35:34;;;;;;;46.80;22.30;;;9.80;99.90;;;;;;4945550;28;20125;-68
2023/04/29 01:38:17;;;;;;;39.67;21.80;;;;;;;;;;4937089;29;20079;-68
2023/04/29 01:40:58;;;;;;;43.78;22.83;;;9.60;99.90;;;;;;4936092;28;20079;-68
2023/04/29 01:43:28;;;;;;;44.80;22.98;;;;;;;;;;4944499;29;20568;-68
2023/04/29 01:45:55;;;;;;;39.08;21.20;;;9.70;99.90;;;;;;4957031;28;20047;-68
2023/04/29 01:48:21;;;;;;;38.08;22.45;;;;;;;;;;4938245;28;20855;-68
2023/04/29 01:50:47;;;;;;;34.97;21.25;;;;;;;;;;4938280;29;20047;-68
2023/04/29 01:53:12;;;;;;;42.58;21.00;;;9.80;99.90;;;;;;4937672;28;20046;-68
2023/04/29 01:55:38;;;;;;;36.67;21.75;;;9.70;99.90;;;;;;4939864;29;20091;-68
2023/04/29 01:58:04;;;;;;;37.28;20.13;;;;;;;;;;4938909;28;20042;-68
2023/04/29 02:00:30;;;;;;;36.13;20.30;;;;;;;;;;4930058;28;20043;-68
2023/04/29 02:02:56;;;;;;;36.28;19.40;;;;;;;;;;4937895;28;20805;-67
2023/04/29 02:05:22;;;;;;;39.22;19.80;;;;;;;;;;4938948;28;20055;-68
2023/04/29 02:07:48;;;;;;;33.67;19.23;;;9.90;99.90;;;;;;4936834;29;20406;-68
2023/04/29 02:10:14;;;;;;;33.50;19.30;;;;;;;;;;4932132;28;20131;-68
2023/04/29 02:12:39;;;;;;;35.63;20.33;;;9.80;99.90;;;;;;4931536;29;20071;-68
2023/04/29 02:15:06;;;;;;;36.33;20.02;;;;;;;;;;4932735;28;20062;-68
2023/04/29 02:17:33;;;;;;;33.33;18.63;;;9.80;99.90;;;;;;4934666;29;20047;-68
2023/04/29 02:19:58;;;;;;;35.97;19.38;;;9.80;99.90;;;;;;4940872;28;20493;-68
2023/04/29 02:22:24;;;;;;;36.60;20.02;;;;;;;;;;4936503;28;20047;-68
2023/04/29 02:24:50;;;;;;;29.95;18.35;;;;;;;;;;4936883;29;20118;-68
2023/04/29 02:27:17;;;;;;;35.38;19.13;;;9.70;99.90;;;;;;4937224;28;20035;-68
2023/04/29 02:29:42;;;;;;;33.30;18.80;;;;;;;;;;4930569;28;20069;-68
2023/04/29 02:32:08;;;;;;;29.05;19.75;;;9.80;99.90;;;;;;4933110;29;20498;-68
2023/04/29 02:34:34;;;;;;;34.95;18.23;;;9.80;99.90;;;;;;4935287;28;20044;-68
2023/04/29 02:37:00;;;;;;;29.88;18.15;;;;;;;;;;4937312;28;20513;-68
2023/04/29 02:39:26;;;;;;;34.40;19.67;;;;;;;;;;4939107;28;20054;-68
2023/04/29 02:41:55;;;;;;;31.15;17.95;;;;;;;;;;4933724;28;20150;-68
2023/04/29 02:44:21;;;;;;;29.90;18.52;;;;;;;;;;4938654;28;20047;-67
2023/04/29 02:46:47;;;;;;;34.65;18.90;;;;;;;;;;4941435;29;20761;-68
2023/04/29 02:49:13;;;;;;;28.00;17.45;;;;;;;;;;4935099;28;20057;-68
2023/04/29 02:51:40;;;;;;;29.52;17.80;;;9.60;99.90;;;;;;4929183;28;20171;-68
2023/04/29 02:54:05;;;;;;;32.28;18.05;;;9.60;99.90;;;;;;4934574;29;21518;-68
2023/04/29 02:56:31;;;;;;;33.08;18.83;;;;;;;;;;4944670;28;20054;-68
2023/04/29 02:58:57;;;;;;;31.45;17.55;;;;;;;;;;4933470;28;20039;-68
2023/04/29 03:01:23;;;;;;;28.00;18.52;;;;;;;;;;4932386;28;20050;-68
2023/04/29 03:03:49;;;;;;;36.92;20.33;;;;;;;;;;4942456;28;20042;-68
2023/04/29 03:06:15;;;;;;;29.80;18.50;;;;;;;;;;4943313;28;20062;-68
2023/04/29 03:08:42;;;;;;;34.63;19.23;;;;;;;;;;4943175;28;20078;-67
2023/04/29 03:11:08;;;;;;;31.10;19.98;;;;;;;;;;4931134;28;20048;-68
2023/04/29 03:13:34;;;;;;;36.47;21.20;;;;;;;;;;4938210;29;20114;-68
2023/04/29 03:16:00;;;;;;;34.13;19.52;;;9.70;99.90;;;;;;4940434;28;20043;-68
2023/04/29 03:18:25;;;;;;;32.20;19.00;;;9.70;99.90;;;;;;4934153;28;20580;-67
2023/04/29 03:20:51;;;;;;;32.35;18.88;;;9.60;99.90;;;;;;4937044;28;20070;-68
2023/04/29 03:23:17;;;;;;;33.50;19.13;;;;;;;;;;4939574;28;20066;-68
2023/04/29 03:25:43;;;;;;;34.35;19.58;;;;;;;;;;4942654;29;20051;-68
2023/04/29 03:28:08;;;;;;;38.58;20.42;;;9.60;99.90;;;;;;4945017;28;20043;-68
2023/04/29 03:30:35;;;;;;;34.58;19.75;;;;;;;;;;4935978;28;20047;-68
2023/04/29 03:33:01;;;;;;;36.90;21.48;;;9.40;99.90;;;;;;4944971;28;20058;-68
2023/04/29 03:35:27;;;;;;;34.90;20.50;;;;;;;;;;4936506;29;20044;-68
2023/04/29 03:37:53;;;;;;;37.53;19.27;;;;;;;;;;4939976;29;20053;-67
2023/04/29 03:40:18;;;;;;;41.00;20.02;;;;;;;;;;4933414;29;20135;-68
2023/04/29 03:42:44;;;;;;;34.25;18.60;;;9.50;99.90;;;;;;4944399;28;20039;-68
2023/04/29 03:45:13;;;;;;;35.60;18.85;;;9.50;99.90;;;;;;4947609;28;20409;-68
2023/04/29 03:47:39;;;;;;;41.30;20.30;;;;;;;;;;4936849;29;20061;-67
2023/04/29 03:50:05;;;;;;;33.30;20.55;;;9.50;99.90;;;;;;4946444;28;20040;-68
2023/04/29 03:52:35;;;;;;;36.65;19.27;;;;;;;;;;4941215;28;20144;-68
2023/04/29 03:55:01;;;;;;;38.75;18.80;;;;;;;;;;4944822;28;20044;-68
2023/04/29 03:57:27;;;;;;;37.53;19.75;;;;;;;;;;4937063;28;20150;-67
2023/04/29 03:59:53;;;;;;;41.45;21.13;;;;;;;;;;4935662;28;20073;-67
2023/04/29 04:02:19;;;;;;;33.22;18.60;;;;;;;;;;4942562;28;20053;-68
2023/04/29 04:04:45;;;;;;;30.02;19.27;;;;;;;;;;4944988;28;20131;-68
2023/04/29 04:07:11;;;;;;;31.27;18.98;;;9.40;99.90;;;;;;4941592;28;20045;-68
2023/04/29 04:09:37;;;;;;;34.47;18.48;;;;;;;;;;4933697;29;20059;-68
2023/04/29 04:12:03;;;;;;;38.25;18.45;;;;;;;;;;4936372;28;20067;-68
2023/04/29 04:14:30;;;;;;;29.33;18.55;;;;;;;;;;4944173;28;20051;-68
2023/04/29 04:16:56;;;;;;;33.22;20.33;;;;;;;;;;4937524;28;20138;-68
2023/04/29 04:19:22;;;;;;;34.88;17.60;;;;;;;;;;4936274;28;20237;-68
2023/04/29 04:21:48;;;;;;;37.80;18.48;;;;;;;;;;4926561;28;20054;-68
2023/04/29 04:24:14;;;;;;;33.90;18.88;;;;;;;;;;4946190;28;20050;-68
2023/04/29 04:26:41;;;;;;;31.83;18.00;;;9.40;99.90;;;;;;4942388;28;20051;-68
2023/04/29 04:29:07;;;;;;;33.42;18.65;;;;;;;;;;4942939;28;20062;-68
2023/04/29 04:31:33;;;;;;;32.25;16.98;;;9.40;99.90;;;;;;4919125;29;20044;-68
2023/04/29 04:33:59;;;;;;;31.42;16.70;;;;;;;;;;4946632;28;20079;-68
2023/04/29 04:36:25;;;;;;;32.95;18.35;;;;;;;;;;4947953;28;20047;-68
2023/04/29 04:38:51;;;;;;;31.15;17.05;;;;;;;;;;4934188;28;20118;-73
2023/04/29 04:41:17;;;;;;;26.60;15.70;;;;;;;;;;4933062;28;20068;-70
2023/04/29 04:43:43;;;;;;;32.65;16.60;;;;;;;;;;4921830;29;20044;-70
2023/04/29 04:46:14;;;;;;;31.02;16.02;;;;;;;;;;4941404;28;20061;-70
2023/04/29 04:48:41;;;;;;;30.55;16.30;;;9.50;99.90;;;;;;4936983;28;20450;-71
2023/04/29 04:51:11;;;;;;;27.27;15.20;;;9.40;99.90;;;;;;4939185;28;20406;-69
2023/04/29 04:53:37;;;;;;;36.83;16.23;;;;;;;;;;4936496;28;20059;-69
2023/04/29 04:56:03;;;;;;;41.25;26.58;;;;;;;;;;4932104;28;20056;-69
2023/04/29 04:58:33;;;;;;;39.33;24.85;;;;;;;;;;4943667;28;20047;-69
2023/04/29 05:00:59;;;;;;;37.45;20.83;;;;;;;;;;4934069;28;20140;-70
2023/04/29 05:03:26;;;;;;;44.78;30.30;;;;;;;;;;4937979;28;20044;-69
2023/04/29 05:05:58;;;;;;;41.05;27.02;;;;;;;;;;4937823;28;20039;-70
2023/04/29 05:08:25;;;;;;;32.53;19.23;;;;;;;;;;4929812;28;20048;-70
2023/04/29 05:10:51;;;;;;;30.90;20.85;;;;;;;;;;4930715;28;20086;-69
2023/04/29 05:13:17;;;;;;;31.83;16.75;;;;;;;;;;4935469;28;20146;-69
2023/04/29 05:15:43;;;;;;;24.85;15.65;;;;;;;;;;4944390;28;20098;-69
2023/04/29 05:18:09;;;;;;;26.00;15.38;;;;;;;;;;4935327;28;20058;-69
2023/04/29 05:20:35;;;;;;;24.75;13.82;;;;;;;;;;4932579;28;20123;-68
2023/04/29 05:23:02;;;;;;;29.05;19.73;;;;;;;;;;4931853;28;20044;-69
2023/04/29 05:25:28;;;;;;;28.10;13.13;;;;;;;;;;4933694;28;20111;-69
2023/04/29 05:27:54;;;;;;;23.08;14.32;;;;;;;;;;4944956;28;20035;-69
2023/04/29 05:30:20;;;;;;;22.15;12.50;;;;;;;;;;4941784;28;20047;-68
2023/04/29 05:32:47;;;;;;;22.35;13.25;;;;;;;;;;4931841;28;20052;-71
2023/04/29 05:35:14;;;;;;;21.08;10.85;;;;;;;;;;4936221;28;20062;-68
2023/04/29 05:37:40;;;;;;;23.10;11.63;;;;;;;;;;4937172;28;20051;-68
2023/04/29 05:40:06;;;;;;;21.60;11.30;;;9.60;99.90;;;;;;4938235;28;20461;-68
2023/04/29 05:42:32;;;;;;;20.27;11.20;;;;;;;;;;4938788;28;20489;-69
2023/04/29 05:44:58;;;;;;;16.45;10.82;;;;;;;;;;4940415;28;20098;-69
2023/04/29 05:47:24;;;;;;;19.10;10.80;;;;;;;;;;4939582;28;20075;-68
2023/04/29 05:49:50;;;;;;;18.52;10.32;;;;;;;;;;4937870;28;20047;-68
2023/04/29 05:52:16;;;;;;;16.75;9.20;;;;;;;;;;4936675;28;20498;-68
2023/04/29 05:54:42;;;;;;;23.45;10.05;;;;;;;;;;4937070;28;20039;-73
2023/04/29 05:57:08;;;;;;;18.10;9.02;;;;;;;;;;4938852;28;20051;-71
2023/04/29 05:59:34;;;;;;;15.90;9.38;;;;;;;;;;4940227;28;20047;-72
2023/04/29 06:02:00;;;;;;;16.23;9.68;;;;;;;;;;4933162;28;20047;-71
2023/04/29 06:04:27;;;;;;;17.05;9.60;;;;;;;;;;4939694;28;20055;-72
2023/04/29 06:06:53;;;;;;;16.95;8.93;;;;;;;;;;4941275;28;20039;-71
2023/04/29 06:09:19;;;;;;;14.95;8.52;;;;;;;;;;4935603;28;20216;-72
2023/04/29 06:11:46;;;;;;;18.77;9.68;;;;;;;;;;4935796;28;20098;-72
2023/04/29 06:14:12;;;;;;;16.13;7.93;;;;;;;;;;4940419;28;20071;-73
2023/04/29 06:16:39;;;;;;;16.08;9.10;;;;;;;;;;4936210;28;20469;-72
2023/04/29 06:19:05;;;;;;;15.25;9.13;;;;;;;;;;4934259;28;20044;-70
2023/04/29 06:21:31;;;;;;;14.65;9.40;;;;;;;;;;4930934;28;21430;-71
2023/04/29 06:23:57;;;;;;;16.27;8.50;;;;;;;;;;4945161;28;20161;-72
2023/04/29 06:26:23;;;;;;;14.90;9.35;;;;;;;;;;4948788;28;20122;-72
2023/04/29 06:28:49;;;;;;;15.57;9.30;;;;;;;;;;4943895;28;20497;-70
2023/04/29 06:31:16;;;;;;;17.95;9.57;;;;;;;;;;4943635;28;20039;-71
2023/04/29 06:33:42;;;;;;;16.73;9.77;;;;;;;;;;4935132;28;20388;-70
2023/04/29 06:36:07;;;;;;;22.15;12.98;;;10.60;99.90;;;;;;4942872;28;20458;-70
2023/04/29 06:38:33;;;;;;;50.47;29.83;;;;;;;;;;4938573;28;20051;-71
2023/04/29 06:41:00;;;;;;;22.08;12.55;;;;;;;;;;4940059;28;20172;-72
2023/04/29 06:43:28;;;;;;;18.63;11.00;;;11.20;99.90;;;;;;4930807;28;20051;-69
2023/04/29 06:45:54;;;;;;;17.42;10.05;;;;;;;;;;4940037;28;20053;-70
2023/04/29 06:48:20;;;;;;;16.70;10.85;;;;;;;;;;4918635;29;20056;-70
2023/04/29 06:50:53;;;;;;;34.95;18.83;;;11.20;99.90;;;;;;4936451;28;20535;-70
2023/04/29 06:53:20;;;;;;;37.72;22.70;;;;;;;;;;4935109;28;20044;-69
2023/04/29 06:55:46;;;;;;;28.08;15.00;;;;;;;;;;4950661;28;20047;-70
2023/04/29 06:58:13;;;;;;;17.50;10.32;;;;;;;;;;4933983;28;20589;-70
2023/04/29 07:00:39;;;;;;;27.48;14.85;;;13.00;99.90;;;;;;4932300;28;20044;-69
2023/04/29 07:03:05;;;;;;;53.75;30.65;;;;;;;;;;4941559;28;20046;-70
2023/04/29 07:05:31;;;;;;;19.73;12.43;;;;;;;;;;4918333;29;20286;-72
2023/04/29 07:07:56;;;;;;;15.13;8.90;;;13.50;99.90;;;;;;4933528;28;20119;-71
2023/04/29 07:10:22;;;;;;;14.80;7.53;;;;;;;;;;4929285;28;20056;-69
2023/04/29 07:12:48;;;;;;;14.38;8.25;;;;;;;;;;4930352;28;20144;-69
2023/04/29 07:15:15;;;;;;;12.50;7.95;;;;;;;;;;4935118;28;20182;-70
2023/04/29 07:17:41;;;;;;;14.95;7.30;;;;;;;;;;4935712;28;20047;-69
2023/04/29 07:20:07;;;;;;;14.10;8.07;;;;;;;;;;4944179;28;20062;-69
2023/04/29 07:22:33;;;;;;;16.38;8.75;;;;;;;;;;4942601;28;20047;-76
2023/04/29 07:25:01;;;;;;;10.13;7.25;;;13.20;99.90;;;;;;4934379;29;20048;-71
2023/04/29 07:27:27;;;;;;;14.60;8.85;;;;;;;;;;4943327;28;20043;-71
2023/04/29 07:29:53;;;;;;;13.13;7.07;;;;;;;;;;4937842;28;20154;-69
2023/04/29 07:32:19;;;;;;;12.80;7.47;;;13.20;99.90;;;;;;4939865;28;20078;-75
2023/04/29 07:34:45;;;;;;;18.38;8.35;;;;;;;;;;4939531;29;20111;-71
2023/04/29 07:37:11;;;;;;;18.30;7.93;;;;;;;;;;4953753;28;20058;-71
2023/04/29 07:39:37;;;;;;;17.38;8.30;;;;;;;;;;4941222;29;20181;-72
2023/04/29 07:42:03;;;;;;;14.27;7.35;;;;;;;;;;4951983;23;20113;-70
2023/04/29 07:44:29;;;;;;;10.85;7.60;;;;;;;;;;4934836;28;20048;-71
2023/04/29 07:46:55;;;;;;;16.27;7.18;;;;;;;;;;4926927;29;20056;-71
2023/04/29 07:49:21;;;;;;;15.07;9.35;;;;;;;;;;4932617;28;20054;-71
2023/04/29 07:51:47;;;;;;;12.77;7.47;;;;;;;;;;4940907;28;20051;-71
2023/04/29 07:54:13;;;;;;;13.02;7.20;;;;;;;;;;4943017;28;20076;-73
2023/04/29 07:56:39;;;;;;;13.77;8.07;;;;;;;;;;4941479;28;20054;-77
2023/04/29 07:59:05;;;;;;;15.65;7.20;;;;;;;;;;4946384;28;20055;-69
2023/04/29 08:01:33;;;;;;;11.30;7.00;;;13.60;99.90;;;;;;4942511;29;20611;-70
2023/04/29 08:03:59;;;;;;;13.48;6.72;;;;;;;;;;4942940;28;20051;-69
2023/04/29 08:06:26;;;;;;;11.70;6.63;;;;;;;;;;4947030;28;20083;-69
2023/04/29 08:08:52;;;;;;;11.38;7.32;;;;;;;;;;4940106;28;20047;-68
2023/04/29 08:11:19;;;;;;;16.42;7.93;;;13.30;99.90;;;;;;4948652;28;20051;-69
2023/04/29 08:13:45;;;;;;;12.40;7.35;;;13.40;99.90;;;;;;4938910;29;20038;-70
2023/04/29 08:16:11;;;;;;;10.77;6.75;;;13.30;99.90;;;;;;4938774;28;20402;-69
2023/04/29 08:18:37;;;;;;;13.13;7.10;;;;;;;;;;4934452;28;20437;-69
2023/04/29 08:21:03;;;;;;;14.60;6.63;;;13.30;99.90;;;;;;4936085;29;20047;-69
2023/04/29 08:23:29;;;;;;;11.07;6.88;;;;;;;;;;4946214;28;20690;-70
2023/04/29 08:25:55;;;;;;;13.88;7.60;;;;;;;;;;4943749;28;20051;-69
2023/04/29 08:28:21;;;;;;;14.85;8.27;;;13.30;99.90;;;;;;4940961;28;20395;-69
2023/04/29 08:30:47;;;;;;;11.38;7.20;;;;;;;;;;4933313;28;20055;-71
2023/04/29 08:33:13;;;;;;;12.65;6.93;;;;;;;;;;4943614;29;20125;-71
2023/04/29 08:35:40;;;;;;;13.80;7.03;;;;;;;;;;4942694;28;20044;-69
2023/04/29 08:38:06;;;;;;;12.57;7.38;;;13.40;99.90;;;;;;4938524;28;20050;-69
2023/04/29 08:40:40;;;;;;;10.63;6.47;;;13.50;99.90;;;;;;4928719;28;20059;-70
2023/04/29 08:43:08;;;;;;;13.87;7.97;;;13.60;99.90;;;;;;4941732;28;20043;-71
2023/04/29 08:45:35;;;;;;;13.98;7.63;;;;;;;;;;4931886;28;20050;-71
2023/04/29 08:48:02;;;;;;;10.57;6.97;;;13.60;99.90;;;;;;4945133;28;20039;-69
2023/04/29 08:50:30;;;;;;;14.23;8.07;;;13.70;99.90;;;;;;4938071;28;20045;-69
2023/04/29 08:52:55;;;;;;;14.35;7.00;;;13.80;99.90;;;;;;4941075;28;20058;-72
2023/04/29 08:55:21;;;;;;;14.50;6.70;;;;;;;;;;4950242;28;20046;-70
2023/04/29 08:57:49;;;;;;;14.50;7.07;;;14.10;99.90;;;;;;4942397;28;20044;-70
2023/04/29 09:00:15;;;;;;;13.25;7.32;;;14.10;99.90;;;;;;4945072;28;20042;-73
2023/04/29 09:02:48;;;;;;;11.05;6.40;;;14.40;99.90;;;;;;4949984;28;20568;-72
2023/04/29 09:05:14;;;;;;;12.80;6.70;;;;;;;;;;4936583;28;20126;-72
2023/04/29 09:07:41;;;;;;;12.05;7.10;;;;;;;;;;4940346;28;20040;-71
2023/04/29 09:10:08;;;;;;;14.68;6.28;;;14.80;99.90;;;;;;4947126;28;20058;-72
2023/04/29 09:12:35;;;;;;;10.85;7.00;;;;;;;;;;4940056;28;20051;-74
2023/04/29 09:15:01;;;;;;;14.25;6.40;;;14.70;99.90;;;;;;4939864;28;20509;-71
2023/04/29 09:17:37;;;;;;;8.75;5.72;;;14.70;99.90;;;;;;4923575;28;20054;-71
2023/04/29 09:20:23;;;;;;;15.18;6.13;;;14.60;99.90;;;;;;4948347;28;20062;-73
2023/04/29 09:22:49;;;;;;;14.20;6.28;;;14.40;99.90;;;;;;4945225;28;20046;-72
2023/04/29 09:25:15;;;;;;;11.55;6.20;;;;;;;;;;4943098;28;20328;-72
2023/04/29 09:27:42;;;;;;;9.32;5.85;;;;;;;;;;4926302;29;20050;-70
2023/04/29 09:30:08;;;;;;;9.48;6.90;;;14.40;99.90;;;;;;4936224;28;20099;-71
2023/04/29 09:32:35;;;;;;;10.88;7.00;;;;;;;;;;4938771;28;20865;-70
2023/04/29 09:35:24;;;;;;;11.18;6.70;;;14.60;99.90;;;;;;4947293;28;20047;-71
2023/04/29 09:37:50;;;;;;;9.20;6.28;;;;;;;;;;4935362;28;20051;-72
2023/04/29 09:40:30;;;;;;;10.25;6.25;;;14.90;99.90;;;;;;4934162;28;20548;-71
2023/04/29 09:42:59;;;;;;;12.23;6.35;;;16.00;99.90;;;;;;4957060;28;20057;-73
2023/04/29 09:45:33;;;;;;;9.68;6.25;;;15.00;99.90;;;;;;4965979;28;20061;-71
2023/04/29 09:48:03;;;;;;;8.63;6.05;;;15.30;99.90;;;;;;4968807;28;20046;-71
2023/04/29 09:50:31;;;;;;;8.63;6.22;;;15.30;99.90;;;;;;4975699;28;20066;-68
2023/04/29 09:52:57;;;;;;;10.30;5.68;;;15.30;99.90;;;;;;4943786;28;20047;-70
2023/04/29 09:55:23;;;;;;;9.30;5.55;;;15.40;99.90;;;;;;4961814;28;20050;-70
2023/04/29 09:57:51;;;;;;;9.55;6.10;;;;;;;;;;4974632;28;20034;-70
2023/04/29 10:00:17;;;;;;;13.98;6.50;;;;;;;;;;4957804;28;20050;-71
2023/04/29 10:02:48;;;;;;;9.80;5.78;;;15.50;99.90;;;;;;4959374;28;20043;-69
2023/04/29 10:05:15;;;;;;;7.25;5.43;;;15.70;99.90;;;;;;4975482;28;21359;-69
2023/04/29 10:07:41;;;;;;;11.65;6.13;;;15.70;99.90;;;;;;4974426;28;20042;-69
2023/04/29 10:10:09;;;;;;;8.30;5.90;;;15.50;99.90;;;;;;4971764;28;20039;-69
2023/04/29 10:12:36;;;;;;;11.35;6.28;;;;;;;;;;4960828;28;20051;-70
2023/04/29 10:15:24;;;;;;;10.82;5.82;;;15.80;99.90;;;;;;4964375;28;20100;-70
2023/04/29 10:18:17;;;;;;;11.30;5.50;;;15.90;99.90;;;;;;4963285;28;20050;-69
2023/04/29 10:20:47;;;;;;;8.00;5.38;;;15.90;99.90;;;;;;4961003;28;20051;-70
2023/04/29 10:23:13;;;;;;;9.82;5.53;;;16.00;99.90;;;;;;4980786;28;20054;-70
2023/04/29 10:25:42;;;;;;;10.68;5.00;;;16.00;99.90;;;;;;4984970;28;20722;-70
2023/04/29 10:28:17;;;;;;;10.43;6.13;;;16.00;99.90;;;;;;4961402;28;20443;-71
2023/04/29 10:30:50;;;;;;;8.43;5.80;;;16.10;99.90;;;;;;4964342;28;20041;-70
2023/04/29 10:33:17;;;;;;;11.40;5.30;;;16.00;99.90;;;;;;4980015;28;20049;-70
2023/04/29 10:35:46;;;;;;;11.18;5.57;;;16.20;99.90;;;;;;4945400;28;20049;-70
2023/04/29 10:38:26;;;;;;;8.98;5.78;;;16.20;99.90;;;;;;4959113;28;20046;-71
2023/04/29 10:40:52;;;;;;;9.60;5.88;;;16.20;99.90;;;;;;4957777;28;20054;-71
2023/04/29 10:43:28;;;;;;;9.38;5.90;;;16.10;99.90;;;;;;4968584;28;20046;-71
2023/04/29 10:46:16;;;;;;;12.13;5.57;;;16.00;99.90;;;;;;4959969;28;20039;-72
2023/04/29 10:48:49;;;;;;;10.35;6.18;;;16.10;99.90;;;;;;4982371;28;20494;-70
2023/04/29 10:51:30;;;;;;;12.40;6.18;;;16.20;99.90;;;;;;4971382;28;20058;-69
2023/04/29 10:54:19;;;;;;;6.45;3.70;;;16.20;99.90;;;;;;4966586;28;20483;-70
2023/04/29 10:56:51;;;;;;;7.10;4.00;;;16.30;99.90;;;;;;4990183;28;20042;-69
2023/04/29 10:59:32;;;;;;;8.65;4.43;;;16.20;99.90;;;;;;4982786;28;20407;-73
2023/04/29 11:01:58;;;;;;;9.70;4.05;;;;;;;;;;4965276;28;20038;-74
2023/04/29 11:04:24;;;;;;;6.43;4.50;;;;;;;;;;4963834;28;20101;-70
2023/04/29 11:06:55;;;;;;;10.18;4.43;;;16.10;99.90;;;;;;4970017;28;20052;-70
2023/04/29 11:09:24;;;;;;;5.80;3.60;;;16.40;99.90;;;;;;4952001;28;20089;-72
2023/04/29 11:12:04;;;;;;;5.93;3.42;;;16.40;99.90;;;;;;4970934;28;20046;-74
2023/04/29 11:14:41;;;;;;;6.65;3.90;;;16.20;99.90;;;;;;4985778;28;20090;-73
2023/04/29 11:17:12;;;;;;;5.55;4.03;;;16.10;99.90;;;;;;4966571;28;20044;-73
2023/04/29 11:19:45;;;;;;;7.65;4.75;;;16.20;99.90;;;;;;4968129;28;20503;-74
2023/04/29 11:22:25;;;;;;;7.85;4.18;;;16.30;99.90;;;;;;4967427;28;20050;-74
2023/04/29 11:25:08;;;;;;;7.72;4.45;;;16.20;99.90;;;;;;4968471;28;20512;-74
2023/04/29 11:27:36;;;;;;;7.68;4.30;;;16.20;99.90;;;;;;4968301;28;20046;-74
2023/04/29 11:30:04;;;;;;;9.25;4.43;;;16.30;99.90;;;;;;4962900;28;20050;-74
2023/04/29 11:32:39;;;;;;;6.90;3.78;;;16.30;99.90;;;;;;4966584;28;20404;-75
2023/04/29 11:35:14;;;;;;;;;;;16.50;99.90;;;;;;4985160;28;20038;-74
2023/04/29 11:37:41;;;;;;;;;;;16.20;99.90;;;;;;4966608;28;19922;-72
2023/04/29 11:40:08;;;;;;;8.90;4.13;;;16.50;99.90;;;;;;4978047;28;19929;-74
2023/04/29 11:42:43;;;;;;;7.45;4.38;;;16.40;99.90;;;;;;4962616;28;20051;-73
2023/04/29 11:45:09;;;;;;;7.93;3.92;;;16.40;99.90;;;;;;4967391;28;20082;-73
2023/04/29 11:47:34;;;;;;;5.03;3.15;;;16.40;99.90;;;;;;4971268;28;20042;-72
2023/04/29 11:50:04;;;;;;;7.18;4.00;;;16.30;99.90;;;;;;4960165;28;20046;-71
2023/04/29 11:52:31;;;;;;;8.05;4.38;;;16.20;99.90;;;;;;4970719;28;20054;-71
2023/04/29 11:54:58;;;;;;;5.25;2.95;;;;;;;;;;4970496;28;20073;-71
2023/04/29 11:57:24;;;;;;;4.97;2.95;;;;;;;;;;4967421;28;20086;-71
2023/04/29 11:59:50;;;;;;;5.85;3.08;;;;;;;;;;4963796;28;20154;-71
2023/04/29 12:02:16;;;;;;;8.63;3.65;;;16.20;99.90;;;;;;4983133;28;20046;-71
2023/04/29 12:04:45;;;;;;;5.88;2.78;;;16.30;99.90;;;;;;4963830;28;20124;-71
2023/04/29 12:07:15;;;;;;;7.10;2.47;;;16.20;99.90;;;;;;4969697;28;20091;-71
2023/04/29 12:09:45;;;;;;;6.82;2.20;;;16.40;99.90;;;;;;4961052;28;20059;-71
2023/04/29 12:12:12;;;;;;;4.88;2.63;;;16.40;99.90;;;;;;4979908;28;20043;-71
2023/04/29 12:14:40;;;;;;;8.57;2.60;;;16.10;99.90;;;;;;4968090;28;20038;-71
2023/04/29 12:17:06;;;;;;;10.63;2.35;;;16.10;99.90;;;;;;4984084;28;20053;-71
2023/04/29 12:19:32;;;;;;;4.10;2.13;;;16.10;99.90;;;;;;4966589;28;20042;-71
2023/04/29 12:21:59;;;;;;;3.90;1.98;;;16.40;99.90;;;;;;4984694;28;20120;-71
2023/04/29 12:24:25;;;;;;;11.82;2.83;;;;;;;;;;4982581;28;20081;-71
2023/04/29 12:26:52;;;;;;;6.50;2.78;;;;;;;;;;4971037;28;20080;-71
2023/04/29 12:29:22;;;;;;;5.95;2.38;;;16.10;99.90;;;;;;4983667;28;20516;-71
2023/04/29 12:31:48;;;;;;;5.38;2.75;;;;;;;;;;4982687;28;20137;-71
2023/04/29 12:34:14;;;;;;;3.88;2.20;;;;;;;;;;4983304;28;20514;-71
2023/04/29 12:36:43;;;;;;;5.53;2.50;;;16.10;99.90;;;;;;4963576;28;20814;-71
2023/04/29 12:39:12;;;;;;;7.05;2.80;;;15.90;99.90;;;;;;4979630;28;20035;-71
2023/04/29 12:41:41;;;;;;;5.50;3.63;;;15.90;99.90;;;;;;4965953;28;20106;-71
2023/04/29 12:44:09;;;;;;;7.65;2.65;;;;;;;;;;4961917;28;20134;-71
2023/04/29 12:46:39;;;;;;;4.03;2.35;;;16.10;99.90;;;;;;4983734;28;20074;-71
2023/04/29 12:49:06;;;;;;;5.75;2.78;;;15.90;99.90;;;;;;4972515;28;20816;-71
2023/04/29 12:51:35;;;;;;;6.85;3.13;;;16.00;99.90;;;;;;4975047;28;20042;-71
2023/04/29 12:54:02;;;;;;;5.97;2.85;;;;;;;;;;4962056;28;20065;-71
2023/04/29 12:56:31;;;;;;;4.38;2.42;;;15.90;99.90;;;;;;4980720;28;20046;-71
2023/04/29 12:59:05;;;;;;;11.40;3.72;;;15.90;99.90;;;;;;4962222;28;20058;-71
2023/04/29 13:01:31;;;;;;;8.88;2.90;;;;;;;;;;4962569;28;20041;-71
2023/04/29 13:03:57;;;;;;;2.95;2.05;;;;;;;;;;4984060;28;20070;-71
2023/04/29 13:06:23;;;;;;;9.77;3.50;;;;;;;;;;4991075;28;20086;-71
2023/04/29 13:08:50;;;;;;;4.28;2.60;;;;;;;;;;4967601;28;20046;-71
2023/04/29 13:11:16;;;;;;;6.63;2.30;;;;;;;;;;4982717;28;20050;-71
2023/04/29 13:13:43;;;;;;;6.85;2.22;;;;;;;;;;4958410;28;20066;-71
2023/04/29 13:16:09;;;;;;;4.15;1.98;;;;;;;;;;4961025;28;20126;-71
2023/04/29 13:18:35;;;;;;;4.20;1.63;;;;;;;;;;4961348;28;20485;-71
2023/04/29 13:21:01;;;;;;;5.45;1.90;;;;;;;;;;4955150;28;20765;-71
2023/04/29 13:23:27;;;;;;;6.50;2.22;;;;;;;;;;4947697;28;20043;-71
2023/04/29 13:25:53;;;;;;;5.20;1.88;;;;;;;;;;4980218;28;20129;-71
2023/04/29 13:28:21;;;;;;;5.72;2.10;;;;;;;;;;4962524;28;20082;-70
2023/04/29 13:30:47;;;;;;;4.53;2.55;;;16.10;99.90;;;;;;4957720;28;20050;-72
2023/04/29 13:33:13;;;;;;;2.53;1.52;;;;;;;;;;4972507;28;20441;-72
2023/04/29 13:35:40;;;;;;;3.95;1.75;;;;;;;;;;4965607;28;20435;-72
2023/04/29 13:38:06;;;;;;;6.20;2.22;;;;;;;;;;4955143;28;20763;-71
2023/04/29 13:40:32;;;;;;;3.03;2.15;;;;;;;;;;4954922;28;20061;-71
2023/04/29 13:42:58;;;;;;;1.90;1.58;;;;;;;;;;4961211;28;20050;-72
2023/04/29 13:45:24;;;;;;;3.40;2.08;;;;;;;;;;4960038;28;20069;-71